Entebbe, Uganda
Current Conditions -  °F | °C
As of 6:55 PM on Friday 24 Oct 2014 (Local Time) from KQUD Reporting Station
Clear Clear  
Wind Chill: 23°   Ceiling: Unl
Heat Index: 23°   Visibility: 10mi
Dew Point: 18°   Wind: 1mph
Humidity: 77%   Direction: 220°SW
Pressure: 30.1"   Gusts: NA
Location:  0.06°N, 32.46°E
Report Text: KQUD 241555Z AUTO 22001KT 10SM CLR 23/18 A3010 RMK AO2 LTG DSNT SE SLP150 T02260183 $
Loading
Personal Weather Stations






























Interactive Weather Map
Tropical Storm Tracking
New forecast layout! Learn more

10-Day Weather Forecast

Advertisements
Track Severe Weather on mobile